• Join FlightAware (Why Join?)
  • Login
  • US Flag 
06:24AM EDT


 

Airport Tracker/Info


-or-


 

Live Flight TrackerFlight Track Log ✈ UPS1122 ✈ 16-May-2013 ✈ KPHL - KBDL

Flight Track Log - Related Links

Times and Time Zones

All times are in EDT time to prevent confusion due to time zone crossing. See the UPS1122 flight status page for this flight to view local times or setup timezone preferences in your user account.

Time Position Orientation Groundspeed Altitude Reporting Facility
EDT Latitude Longitude Course Direction KTS MPH feet Rate Location/Type
03:27AM 39.8621 -75.2684 108° East 159 183 800  Level FlightAware ADS-B
03:27AM 39.8610 -75.2726 251° West 159 183 1,100 3,720 Climbing FlightAware ADS-B
03:27AM 39.8599 -75.2760 247° West 159 183 1,300 3,000 Climbing FlightAware ADS-B
03:27AM 39.8585 -75.2796 243° Southwest 158 182 1,500 1,980 Climbing FlightAware ADS-B
03:27AM 39.8556 -75.2866 242° Southwest 163 188 1,700 960 Climbing FlightAware ADS-B
03:27AM 39.8515 -75.2951 238° Southwest 175 201 1,800 540 Climbing FlightAware ADS-B
03:27AM 39.8463 -75.3049 235° Southwest 189 217 1,900 960 Climbing FlightAware ADS-B
03:27AM 39.8391 -75.3183 235° Southwest 208 239 2,200 1,860 Climbing FlightAware ADS-B
03:28AM 39.8344 -75.3275 236° Southwest 213 245 2,600 3,000 Climbing FlightAware ADS-B
03:28AM 39.8292 -75.3380 237° Southwest 214 246 3,100 3,120 Climbing FlightAware ADS-B
03:28AM 39.8231 -75.3509 238° Southwest 218 251 3,700 2,580 Climbing FlightAware ADS-B
03:28AM 39.8208 -75.3554 236° Southwest 221 254 3,800 2,220 Climbing FlightAware ADS-B
03:28AM 39.8183 -75.3595 232° Southwest 227 261 4,000 2,520 Climbing FlightAware ADS-B
03:28AM 39.8160 -75.3626 226° Southwest 232 267 4,100 1,680 Climbing FlightAware ADS-B
03:28AM 39.8127 -75.3660 218° Southwest 238 274 4,200 1,680 Climbing FlightAware ADS-B
03:28AM 39.8097 -75.3686 214° Southwest 243 280 4,300 2,520 Climbing FlightAware ADS-B
03:28AM 39.8054 -75.3715 207° Southwest 249 287 4,500 2,520 Climbing FlightAware ADS-B
03:28AM 39.8019 -75.3733 202° Southwest 254 292 4,600 1,680 Climbing FlightAware ADS-B
03:28AM 39.7980 -75.3748 196° South 261 300 4,700 1,680 Climbing FlightAware ADS-B
03:28AM 39.7939 -75.3758 191° South 268 308 4,800 1,680 Climbing FlightAware ADS-B
03:29AM 39.7894 -75.3761 183° South 271 312 4,900 2,520 Climbing FlightAware ADS-B
03:29AM 39.7853 -75.3759 178° South 274 315 5,100 3,960 Climbing FlightAware ADS-B
03:29AM 39.7810 -75.3750 171° South 277 319 5,300 3,420 Climbing FlightAware ADS-B
03:29AM 39.7765 -75.3734 165° South 278 320 5,500 3,000 Climbing FlightAware ADS-B
03:29AM 39.7719 -75.3709 157° South 281 323 5,700 3,420 Climbing FlightAware ADS-B
03:29AM 39.7680 -75.3681 151° Southeast 283 326 5,900 3,420 Climbing FlightAware ADS-B
03:29AM 39.7637 -75.3643 146° Southeast 286 329 6,100 3,420 Climbing FlightAware ADS-B
03:29AM 39.7604 -75.3607 140° Southeast 289 333 6,300 3,000 Climbing FlightAware ADS-B
03:29AM 39.7574 -75.3567 134° Southeast 291 335 6,400 3,000 Climbing FlightAware ADS-B
03:29AM 39.7532 -75.3497 128° Southeast 293 337 6,700 2,640 Climbing FlightAware ADS-B
03:29AM 39.7508 -75.3445 121° Southeast 296 341 6,800 2,520 Climbing FlightAware ADS-B
03:29AM 39.7489 -75.3398 118° Southeast 297 342 7,000 3,420 Climbing FlightAware ADS-B
03:29AM 39.7470 -75.3334 111° Southeast 299 344 7,200 3,000 Climbing FlightAware ADS-B
03:29AM 39.7454 -75.3258 105° East 299 344 7,400 2,520 Climbing FlightAware ADS-B
03:29AM 39.7447 -75.3205 100° East 298 343 7,500 3,420 Climbing FlightAware ADS-B
03:29AM 39.7443 -75.3125 94° East 297 342 7,800 3,000 Climbing FlightAware ADS-B
03:30AM 39.7445 -75.3068 87° East 297 342 7,900 2,520 Climbing FlightAware ADS-B
03:30AM 39.7451 -75.3004 83° East 299 344 8,100 3,000 Climbing FlightAware ADS-B
03:30AM 39.7469 -75.2880 79° East 301 346 8,400 2,520 Climbing FlightAware ADS-B
03:30AM 39.7513 -75.2641 77° East 308 354 9,000 2,520 Climbing FlightAware ADS-B
03:30AM 39.7531 -75.2535 78° East 311 358 9,200 2,760 Climbing FlightAware ADS-B
03:30AM 39.7549 -75.2386 81° East 317 365 9,600 2,460 Climbing FlightAware ADS-B
03:31AM 39.7586 -75.1798 85° East 336 387 10,800 1,740 Climbing FlightAware ADS-B
03:31AM 39.7620 -75.1136 86° East 375 432 11,400 1,380 Climbing FlightAware ADS-B
03:31AM 39.7645 -75.0750 85° East 390 449 11,900 2,160 Climbing FlightAware ADS-B
03:32AM 39.7706 -74.9988 84° East 404 465 13,200 2,340 Climbing FlightAware ADS-B
03:32AM 39.7771 -74.9227 84° East 416 479 14,400 2,400 Climbing FlightAware ADS-B
03:33AM 39.7821 -74.8638 84° East 424 488 15,400 2,520 Climbing FlightAware ADS-B
03:33AM 39.7861 -74.8356 80° East 427 491 15,900 2,400 Climbing FlightAware ADS-B
03:33AM 39.7912 -74.8146 72° East 428 493 16,200 2,640 Climbing FlightAware ADS-B
03:33AM 39.7985 -74.7929 66° East 428 493 16,700 2,820 Climbing FlightAware ADS-B
03:33AM 39.8068 -74.7742 60° Northeast 427 491 17,000 2,520 Climbing FlightAware ADS-B
03:34AM 39.8229 -74.7477 52° Northeast 425 489 17,600 2,580 Climbing FlightAware ADS-B
03:34AM 39.8366 -74.7309 43° Northeast 424 488 18,000 2,820 Climbing FlightAware ADS-B
03:34AM 39.8850 -74.6849 36° Northeast 428 493 19,500 2,820 Climbing FlightAware ADS-B
03:35AM 39.9346 -74.6392 35° Northeast 435 501 20,900 2,760 Climbing FlightAware ADS-B
03:35AM 39.9868 -74.5906 35° Northeast 435 501 22,400 1,980 Climbing FlightAware ADS-B
03:36AM 40.0368 -74.5435 36° Northeast 430 495 23,000 540 Climbing FlightAware ADS-B
03:36AM 40.0886 -74.4947 36° Northeast 430 495 23,000  Level FlightAware ADS-B
03:37AM 40.1369 -74.4490 36° Northeast 430 495 23,000  Level FlightAware ADS-B
03:37AM 40.1859 -74.4026 36° Northeast 430 495 23,000  Level FlightAware ADS-B
03:38AM 40.2350 -74.3561 36° Northeast 430 495 23,000  Level FlightAware ADS-B
03:38AM 40.2836 -74.3098 36° Northeast 429 494 23,000  Level FlightAware ADS-B
03:39AM 40.3325 -74.2631 36° Northeast 430 495 23,000  Level FlightAware ADS-B
03:39AM 40.3814 -74.2165 36° Northeast 430 495 23,000  Level FlightAware ADS-B
03:40AM 40.4296 -74.1705 36° Northeast 430 495 23,000  Level FlightAware ADS-B
03:40AM 40.4782 -74.1242 36° Northeast 430 495 23,000  Level FlightAware ADS-B
03:41AM 40.5273 -74.0777 36° Northeast 431 496 23,000  Level FlightAware ADS-B
03:42AM 40.5772 -74.0304 36° Northeast 431 496 23,000  Level FlightAware ADS-B
03:42AM 40.6258 -73.9843 36° Northeast 433 498 23,000  Level FlightAware ADS-B
03:43AM 40.6751 -73.9374 36° Northeast 433 498 23,000  Level FlightAware ADS-B
03:43AM 40.7239 -73.8909 36° Northeast 434 499 23,000  Level FlightAware ADS-B
03:44AM 40.7733 -73.8435 36° Northeast 434 499 23,000  Level FlightAware ADS-B
03:44AM 40.8228 -73.7960 36° Northeast 435 501 23,000  Level FlightAware ADS-B
03:45AM 40.8734 -73.7473 36° Northeast 437 503 23,000  Level FlightAware ADS-B
03:45AM 40.9231 -73.6992 36° Northeast 437 503 23,000  Level FlightAware ADS-B
03:46AM 40.9720 -73.6516 36° Northeast 437 503 23,000 -840 Level FlightAware ADS-B
03:46AM 41.0209 -73.6038 36° Northeast 433 498 22,200 -2,100 Descending FlightAware ADS-B
03:47AM 41.0701 -73.5555 37° Northeast 436 502 20,900 -2,280 Descending FlightAware ADS-B
03:47AM 41.1191 -73.5075 36° Northeast 428 493 19,900 -2,100 Descending FlightAware ADS-B
03:48AM 41.1668 -73.4604 37° Northeast 422 486 18,800 -1,980 Descending FlightAware ADS-B
03:48AM 41.2136 -73.4142 37° Northeast 413 475 17,900 -1,680 Descending FlightAware ADS-B
03:49AM 41.2597 -73.3687 37° Northeast 400 460 17,100 -1,860 Descending FlightAware ADS-B
03:49AM 41.3074 -73.3216 37° Northeast 389 448 16,000 -2,040 Descending FlightAware ADS-B
03:50AM 41.3493 -73.2799 37° Northeast 369 425 15,000 -1,800 Descending FlightAware ADS-B
03:50AM 41.3883 -73.2410 37° Northeast 342 394 14,200 -300 Descending FlightAware ADS-B
03:51AM 41.4440 -73.1880 35° Northeast 347 399 14,600 180 Climbing FlightAware
03:52AM 41.4990 -73.1340 36° Northeast 347 399 14,600 -2,520 Level FlightAware
03:53AM 41.5506 -73.0392 36° Northeast 324 373 10,600 -2,760 Descending Boston Center
03:54AM 41.5989 -72.9536 53° Northeast 318 366 9,800 -900 Descending Boston Center
03:55AM 41.6597 -72.8514 51° Northeast 313 360 8,800 -900 Descending Boston Center
03:56AM 41.7081 -72.7708 51° Northeast 313 360 8,000 -900 Descending Boston Center
03:57AM 41.7686 -72.6739 50° Northeast 313 360 7,000 -1,080 Descending Boston Center
03:58AM 41.8208 -72.6017 46° Northeast 301 346 5,900 -1,140 Descending Boston Center
03:59AM 41.8836 -72.5264 42° Northeast 282 325 4,800 -840 Descending Boston Center
04:00AM 41.9272 -72.4708 43° Northeast 259 298 4,300 -600 Descending Boston Center
04:01AM 41.9731 -72.4067 46° Northeast 223 257 3,600 -660 Descending Boston Center
04:02AM 42.0086 -72.3647 41° Northeast 179 206 3,000 -300 Descending Boston Center
04:03AM 42.0378 -72.3925 325° Northwest 118 136 3,000  Level Boston Center